createdAt,value
2019-05-20T00:03:17.856Z,20.2
2019-05-20T00:06:47.995Z,20.01
2019-05-20T00:10:18.144Z,19.49
2019-05-20T00:13:48.173Z,19.22
2019-05-20T00:17:18.309Z,19.29
2019-05-20T00:20:48.314Z,19.34
2019-05-20T00:24:18.381Z,19.37
2019-05-20T00:27:48.519Z,19.43
2019-05-20T00:31:18.564Z,19.33
2019-05-20T00:34:48.733Z,19.47
2019-05-20T00:38:18.826Z,19.59
2019-05-20T00:41:48.995Z,19.65
2019-05-20T00:45:19.234Z,19.19
2019-05-20T00:48:49.219Z,18.66
2019-05-20T00:52:19.318Z,18.3
2019-05-20T00:55:49.457Z,18.29
2019-05-20T00:59:19.730Z,18.58
2019-05-20T01:00:15.445Z,18.61
2019-05-20T01:03:45.445Z,18.79
2019-05-20T01:07:15.607Z,18.91
2019-05-20T01:10:45.772Z,19.01
2019-05-20T01:14:15.905Z,19.07
2019-05-20T01:17:45.985Z,19.17
2019-05-20T01:21:16.142Z,19.19
2019-05-20T01:24:46.259Z,19.2
2019-05-20T01:28:16.337Z,19.22
2019-05-20T01:31:46.450Z,19.13
2019-05-20T01:35:16.651Z,19.12
2019-05-20T01:38:46.617Z,19.14
2019-05-20T01:42:16.617Z,19.19
2019-05-20T01:45:46.747Z,19.2
2019-05-20T01:49:16.802Z,19.17
2019-05-20T01:52:46.830Z,19.2
2019-05-20T01:56:16.962Z,19.13
2019-05-20T01:59:47.034Z,19.14
2019-05-20T02:03:30.356Z,19.11
2019-05-20T02:07:02.156Z,19.13
2019-05-20T02:10:32.285Z,19.14
2019-05-20T02:14:06.743Z,19.11
2019-05-20T02:17:36.897Z,19.08
2019-05-20T02:21:06.907Z,19.07
2019-05-20T02:24:37.001Z,19.03
2019-05-20T02:28:07.042Z,19.07
2019-05-20T02:31:37.142Z,19.19
2019-05-20T02:35:07.339Z,19.23
2019-05-20T02:38:37.440Z,19.28
2019-05-20T02:42:07.708Z,19.23
2019-05-20T02:45:37.755Z,19.31
2019-05-20T02:49:07.827Z,19.21
2019-05-20T02:52:37.887Z,19.18
2019-05-20T02:56:07.965Z,19.22
2019-05-20T02:59:38.226Z,19.22
2019-05-20T03:00:14.644Z,19.24
2019-05-20T03:03:44.669Z,19.3
2019-05-20T03:07:14.780Z,19.35
2019-05-20T03:10:44.971Z,19.42
2019-05-20T03:14:15.048Z,19.48
2019-05-20T03:17:45.195Z,19.53
2019-05-20T03:21:15.167Z,19.55
2019-05-20T03:24:45.158Z,19.59
2019-05-20T03:28:15.371Z,19.69
2019-05-20T03:31:45.342Z,19.72
2019-05-20T03:35:15.500Z,19.85
2019-05-20T03:38:45.621Z,19.97
2019-05-20T03:42:15.683Z,20.14
2019-05-20T03:45:45.710Z,20.28
2019-05-20T03:49:15.805Z,20.35
2019-05-20T03:52:45.836Z,20.49
2019-05-20T05:06:37.453Z,22.17
2019-05-20T05:10:09.149Z,22.18
2019-05-20T05:13:39.323Z,22.38
2019-05-20T05:17:09.485Z,22.53
2019-05-20T05:20:39.690Z,22.61
2019-05-20T05:24:09.962Z,22.65
2019-05-20T05:27:40.035Z,22.95
2019-05-20T05:31:10.195Z,23.3
2019-05-20T05:34:40.257Z,23.54
2019-05-20T05:38:10.362Z,23.63
2019-05-20T05:41:40.404Z,23.81
2019-05-20T05:45:10.746Z,23.96
2019-05-20T05:48:40.839Z,24.27
2019-05-20T05:52:10.892Z,24.53
2019-05-20T05:55:41.007Z,24.62
2019-05-20T05:59:11.040Z,24.73
2019-05-20T06:02:41.153Z,24.79
2019-05-20T06:06:13.084Z,24.99
2019-05-20T06:09:43.513Z,25.06
2019-05-20T06:13:13.534Z,25.02
2019-05-20T06:16:43.674Z,25.14
2019-05-20T06:20:15.530Z,25.51
2019-05-20T06:23:45.686Z,25.62
2019-05-20T06:27:15.745Z,25.8
2019-05-20T06:30:46.862Z,25.95
2019-05-20T06:34:17.070Z,26.01
2019-05-20T06:37:52.071Z,25.91
2019-05-20T06:41:22.171Z,25.81
2019-05-20T06:44:55.045Z,25.64
2019-05-20T06:48:27.346Z,25.51
2019-05-20T06:51:57.341Z,25.54
2019-05-20T06:55:27.408Z,25.69
2019-05-20T06:58:57.539Z,25.8
2019-05-20T07:00:33.375Z,25.8
2019-05-20T07:04:03.496Z,25.57
2019-05-20T07:07:33.609Z,25.26
2019-05-20T07:11:03.778Z,24.55
2019-05-20T07:14:33.947Z,24.45
2019-05-20T07:18:04.088Z,24.5
2019-05-20T07:21:34.116Z,24.6
2019-05-20T07:25:04.312Z,24.93
2019-05-20T07:28:34.402Z,25.13
2019-05-20T07:32:04.517Z,25.15
2019-05-20T07:35:34.624Z,25.22
2019-05-20T07:39:05.737Z,25.38
2019-05-20T07:42:35.873Z,25.67
2019-05-20T07:46:07.948Z,25.94
2019-05-20T07:49:38.456Z,26.23
2019-05-20T07:53:10.537Z,26.27
2019-05-20T07:56:44.413Z,26.03
2019-05-20T08:00:14.752Z,25.84
2019-05-20T08:03:44.862Z,25.82
2019-05-20T08:07:27.650Z,25.83
2019-05-20T08:11:06.294Z,25.95
2019-05-20T08:14:36.406Z,25.89
2019-05-20T08:18:06.518Z,25.78
2019-05-20T08:21:36.797Z,25.76
2019-05-20T08:25:07.459Z,26.02
2019-05-20T08:28:37.484Z,25.93
2019-05-20T08:32:07.508Z,26.17
2019-05-20T08:35:37.653Z,26.52
2019-05-20T08:39:08.221Z,26.46
2019-05-20T08:42:38.359Z,26.35
2019-05-20T08:46:08.433Z,26.18
2019-05-20T08:49:38.910Z,25.5
2019-05-20T08:53:09.349Z,25.21
2019-05-20T08:56:39.505Z,25.18
2019-05-20T09:00:23.238Z,25.12
2019-05-20T09:03:54.443Z,25.12
2019-05-20T09:07:24.585Z,25.11
2019-05-20T09:10:54.713Z,25.09
2019-05-20T09:14:25.082Z,24.89
2019-05-20T09:17:55.267Z,25.31
2019-05-20T09:21:25.285Z,25.56
2019-05-20T09:24:55.427Z,25.98
2019-05-20T09:28:25.559Z,26.2
2019-05-20T09:31:55.759Z,26.5
2019-05-20T09:35:25.898Z,26.7
2019-05-20T09:38:55.984Z,26.93
2019-05-20T09:42:26.235Z,27.32
2019-05-20T09:46:06.386Z,27.75
2019-05-20T09:49:37.978Z,28.21
2019-05-20T09:53:08.257Z,28.38
2019-05-20T09:56:38.194Z,28.78
2019-05-20T10:00:08.680Z,29.17
2019-05-20T10:03:38.758Z,29.32
2019-05-20T10:07:09.108Z,29.79
2019-05-20T10:10:39.387Z,29.94
2019-05-20T10:14:09.504Z,30.36
2019-05-20T10:17:39.646Z,30.18
2019-05-20T10:21:09.814Z,30.38
2019-05-20T10:24:39.896Z,30.51
2019-05-20T10:28:10.033Z,30.93
2019-05-20T10:31:40.091Z,30.99
2019-05-20T10:35:10.351Z,31.12
2019-05-20T10:38:56.899Z,31.37
2019-05-20T10:42:29.059Z,31.53
2019-05-20T10:45:59.164Z,32.03
2019-05-20T10:49:29.304Z,32.09
2019-05-20T10:52:59.369Z,32.04
2019-05-20T10:56:29.544Z,31.98
2019-05-20T10:59:59.657Z,32.25
2019-05-20T11:00:15.953Z,32.27
2019-05-20T11:03:46.163Z,32.09
2019-05-20T11:07:16.319Z,31.84
2019-05-20T11:10:46.573Z,31.61
2019-05-20T11:14:16.800Z,30.74
2019-05-20T11:17:46.920Z,31.03
2019-05-20T11:21:17.178Z,31.86
2019-05-20T11:24:47.428Z,32.13
2019-05-20T11:28:17.601Z,32.16
2019-05-20T11:31:47.809Z,32.05
2019-05-20T11:35:18.520Z,32.04
2019-05-20T11:38:48.615Z,32.22
2019-05-20T11:42:18.729Z,32.28
2019-05-20T11:45:48.945Z,32.64
2019-05-20T11:49:19.082Z,32.66
2019-05-20T11:52:49.197Z,32.68
2019-05-20T11:56:19.379Z,33.1
2019-05-20T11:59:49.507Z,33.47
2019-05-20T12:03:19.581Z,33.4
2019-05-20T12:06:49.692Z,32.42
2019-05-20T12:10:19.847Z,31.73
2019-05-20T12:13:50.037Z,30.95
2019-05-20T12:17:20.137Z,30.21
2019-05-20T12:20:50.299Z,30.12
2019-05-20T12:24:20.390Z,30.95
2019-05-20T12:27:50.572Z,31.35
2019-05-20T12:31:20.669Z,30.14
2019-05-20T12:34:50.883Z,29.4
2019-05-20T12:38:21.055Z,28.76
2019-05-20T12:41:51.094Z,28.61
2019-05-20T12:45:21.278Z,28.56
2019-05-20T12:48:51.498Z,28.37
2019-05-20T12:52:21.687Z,28.18
2019-05-20T12:55:51.845Z,28.07
2019-05-20T12:59:21.911Z,28.37
2019-05-20T13:00:17.602Z,28.48
2019-05-20T13:03:47.569Z,28.83
2019-05-20T13:07:17.765Z,28.93
2019-05-20T13:10:47.886Z,28.52
2019-05-20T13:14:17.959Z,27.9
2019-05-20T13:17:48.050Z,28.08
2019-05-20T13:21:18.078Z,27.97
2019-05-20T13:24:48.219Z,27.93
2019-05-20T13:28:18.333Z,27.84
2019-05-20T13:31:48.465Z,27.68
2019-05-20T13:35:18.532Z,27.52
2019-05-20T13:38:48.488Z,27.44
2019-05-20T13:42:28.072Z,27.47
2019-05-20T13:45:58.168Z,28.54
2019-05-20T13:49:28.381Z,30.18
2019-05-20T13:52:58.512Z,30.58
2019-05-20T13:56:28.567Z,30.21
2019-05-20T13:59:58.839Z,30.19
2019-05-20T14:03:28.897Z,30.22
2019-05-20T14:06:59.191Z,30.28
2019-05-20T14:10:29.266Z,31
2019-05-20T14:13:59.471Z,31.32
2019-05-20T14:17:29.925Z,31.5
2019-05-20T14:21:00.069Z,30.84
2019-05-20T14:24:30.264Z,30.57
2019-05-20T14:28:00.287Z,30.32
2019-05-20T14:31:30.397Z,29.47
2019-05-20T14:35:00.499Z,29.58
2019-05-20T14:38:30.537Z,30.42
2019-05-20T14:42:00.591Z,30.52
2019-05-20T14:45:30.737Z,30.1
2019-05-20T14:49:02.659Z,29.38
2019-05-20T14:52:33.081Z,29.09
2019-05-20T14:56:03.163Z,29.55
2019-05-20T14:59:33.161Z,31.34
2019-05-20T15:00:16.162Z,31.41
2019-05-20T15:03:46.301Z,32.94
2019-05-20T15:07:29.030Z,34.55
2019-05-20T15:11:00.547Z,34.64
2019-05-20T15:14:30.549Z,34.72
2019-05-20T15:18:00.801Z,35.33
2019-05-20T15:21:30.807Z,35.35
2019-05-20T15:25:00.902Z,35.89
2019-05-20T15:28:30.956Z,35.88
2019-05-20T15:32:01.047Z,36.05
2019-05-20T15:35:31.173Z,36.14
2019-05-20T15:39:01.289Z,35.63
2019-05-20T15:42:31.600Z,35.47
2019-05-20T15:46:01.708Z,36.41
2019-05-20T15:49:31.811Z,36.8
2019-05-20T15:53:01.984Z,37.54
2019-05-20T15:56:32.143Z,37.79
2019-05-20T16:00:03.461Z,37.75
2019-05-20T16:03:33.489Z,37.73
2019-05-20T16:07:03.881Z,37.25
2019-05-20T16:10:34.043Z,36.23
2019-05-20T16:14:04.211Z,35.04
2019-05-20T16:17:34.277Z,34.55
2019-05-20T16:21:04.415Z,33.95
2019-05-20T16:24:34.586Z,34.1
2019-05-20T16:28:04.795Z,34.32
2019-05-20T16:31:35.082Z,34.38
2019-05-20T16:35:05.957Z,34.19
2019-05-20T16:38:36.150Z,34.37
2019-05-20T16:42:06.283Z,34.58
2019-05-20T16:45:36.445Z,33.86
2019-05-20T16:49:06.584Z,32.59
2019-05-20T16:52:36.688Z,32.21
2019-05-20T16:56:06.747Z,31.96
2019-05-20T16:59:36.795Z,31.22
2019-05-20T17:00:30.796Z,31.13
2019-05-20T17:04:02.211Z,30.51
2019-05-20T17:07:32.312Z,30.47
2019-05-20T17:11:02.470Z,29.67
2019-05-20T17:14:32.535Z,28.46
2019-05-20T17:18:02.816Z,27.82
2019-05-20T17:21:32.875Z,27.21
2019-05-20T17:25:03.094Z,26.47
2019-05-20T17:28:33.237Z,26.1
2019-05-20T17:32:03.323Z,25.93
2019-05-20T17:35:33.453Z,25.56
2019-05-20T17:39:05.544Z,25.19
2019-05-20T17:42:35.662Z,24.95
2019-05-20T17:46:05.861Z,24.68
2019-05-20T17:49:35.978Z,24.49
2019-05-20T17:53:06.166Z,23.61
2019-05-20T17:56:36.224Z,22.9
2019-05-20T18:00:07.229Z,22.74
2019-05-20T18:03:37.349Z,22.64
2019-05-20T18:07:07.474Z,22.63
2019-05-20T18:10:37.561Z,22.63
2019-05-20T18:14:07.737Z,22.64
2019-05-20T18:17:37.850Z,22.34
2019-05-20T18:21:08.075Z,22.08
2019-05-20T18:24:38.093Z,21.8
2019-05-20T18:28:08.381Z,21.56
2019-05-20T18:31:38.518Z,21.45
2019-05-20T18:35:09.699Z,21.44
2019-05-20T18:38:39.868Z,21.38
2019-05-20T18:42:10.060Z,21.42
2019-05-20T18:45:40.196Z,21.37
2019-05-20T18:49:10.240Z,21.34
2019-05-20T18:52:40.358Z,21.34
2019-05-20T18:56:10.423Z,21.35
2019-05-20T18:59:40.543Z,21.35
2019-05-20T19:00:15.971Z,21.38
2019-05-20T19:03:46.348Z,21.47
2019-05-20T19:07:16.691Z,21.38
2019-05-20T19:10:46.827Z,21.19
2019-05-20T19:14:17.042Z,21.08
2019-05-20T19:17:47.113Z,20.96
2019-05-20T19:21:17.145Z,20.85
2019-05-20T19:24:47.202Z,20.77
2019-05-20T19:28:17.320Z,20.76
2019-05-20T19:32:00.697Z,20.76
2019-05-20T19:35:31.579Z,20.92
2019-05-20T19:39:01.656Z,20.83
2019-05-20T19:42:31.828Z,20.76
2019-05-20T19:46:01.985Z,20.69
2019-05-20T19:49:32.089Z,20.61
2019-05-20T19:53:02.290Z,20.66
2019-05-20T19:56:32.515Z,20.72
2019-05-20T20:00:03.442Z,20.71
2019-05-20T20:03:33.563Z,20.69
2019-05-20T20:07:03.701Z,20.49
2019-05-20T20:10:33.927Z,20.48
2019-05-20T20:14:04.090Z,20.28
2019-05-20T20:17:34.145Z,20.27
2019-05-20T20:21:04.144Z,20.34
2019-05-20T20:24:34.200Z,20.28
2019-05-20T20:28:04.320Z,20.19
2019-05-20T20:31:34.472Z,20.09
2019-05-20T20:35:05.152Z,20.02
2019-05-20T20:38:35.211Z,19.93
2019-05-20T20:42:05.351Z,19.99
2019-05-20T20:45:35.403Z,20.07
2019-05-20T20:49:05.585Z,20.04
2019-05-20T20:52:35.759Z,20.07
2019-05-20T20:56:05.893Z,20.16
2019-05-20T20:59:36.127Z,20.16
2019-05-20T21:00:16.695Z,20.16
2019-05-20T21:03:46.841Z,20.22
2019-05-20T21:07:16.979Z,20.19
2019-05-20T21:10:47.130Z,20.16
2019-05-20T21:14:17.134Z,20.08
2019-05-20T21:17:47.285Z,19.9
2019-05-20T21:21:17.360Z,19.9
2019-05-20T21:24:47.448Z,19.82
2019-05-20T21:28:17.555Z,19.7
2019-05-20T21:31:47.710Z,19.71
2019-05-20T21:35:17.765Z,19.64
2019-05-20T21:38:47.819Z,19.59
2019-05-20T21:42:17.961Z,19.58
2019-05-20T21:45:48.105Z,19.59
2019-05-20T21:49:18.192Z,19.6
2019-05-20T21:52:48.384Z,19.58
2019-05-20T21:56:18.435Z,19.52
2019-05-20T21:59:48.537Z,19.46
2019-05-20T22:03:24.452Z,19.38
2019-05-20T22:06:55.211Z,19.33
2019-05-20T22:10:25.367Z,19.27
2019-05-20T22:13:55.459Z,19.14
2019-05-20T22:17:25.627Z,19.1
2019-05-20T22:20:55.776Z,19.09
2019-05-20T22:24:25.933Z,19.03
2019-05-20T22:27:56.040Z,18.91
2019-05-20T22:31:26.228Z,18.86
2019-05-20T22:34:56.313Z,18.79
2019-05-20T22:38:26.416Z,18.49
2019-05-20T22:41:56.418Z,18.39
2019-05-20T22:45:26.531Z,18.29
2019-05-20T22:48:56.789Z,18.23
2019-05-20T22:52:26.958Z,18.22
2019-05-20T22:55:57.009Z,18.05
2019-05-20T22:59:27.067Z,18.01
2019-05-20T23:00:16.029Z,18.01
2019-05-20T23:03:56.142Z,17.97
2019-05-20T23:07:26.713Z,17.92
2019-05-20T23:10:56.793Z,18
2019-05-20T23:14:26.857Z,18.07
2019-05-20T23:17:56.945Z,18.1
2019-05-20T23:21:26.995Z,18.12
2019-05-20T23:24:57.053Z,18.08
2019-05-20T23:28:27.156Z,18.06
2019-05-20T23:31:57.122Z,18.04
2019-05-20T23:35:27.213Z,17.97
2019-05-20T23:38:57.357Z,17.89
2019-05-20T23:42:27.442Z,17.87
2019-05-20T23:45:57.450Z,17.88
2019-05-20T23:49:27.504Z,17.84
2019-05-20T23:52:57.586Z,17.81
2019-05-20T23:56:27.613Z,17.86
2019-05-20T23:59:57.658Z,17.81
